Terminal Aerodrome Forecast
Issued by NWS

Home | Current Version | Previous Version | Graphics & Text | Print | Product List | Glossary On
Versions: 1 2 3 4 5 6 7 8 9 10 11 12 13 14 15 16 17 18 19 20 21 22
000
FTUS43 KMPX 202300
TAFRWF
TAF
KRWF 202324Z 2100/2124 15010KT P6SM -SHRA SCT025 SCT050 BKN110
     FM210200 14008KT 6SM BR SCT025 OVC050
     FM210500 14008KT 6SM -SHRA BR VCTS SCT012 BKN035CB
      TEMPO 2105/2108 2SM SHRA BKN012
     FM211100 14006KT 4SM BR SCT008 BKN012
     FM211600 17008KT 6SM BR SCT012 BKN025
     FM211800 20008KT P6SM BKN050=

USA.gov is the U.S. government's official web portal to all federal, state and local government web resources and services.